createdAt,value
2022-12-15T00:01:22.169Z,99.30
2022-12-15T00:04:09.422Z,99.40
2022-12-15T00:06:57.116Z,99.60
2022-12-15T00:09:44.403Z,99.70
2022-12-15T00:12:31.878Z,99.60
2022-12-15T00:15:22.680Z,99.60
2022-12-15T00:18:10.372Z,99.70
2022-12-15T00:20:57.691Z,99.70
2022-12-15T00:23:45.091Z,99.60
2022-12-15T00:26:32.492Z,99.60
2022-12-15T00:29:19.940Z,99.60
2022-12-15T00:32:07.197Z,99.50
2022-12-15T00:34:54.778Z,99.50
2022-12-15T00:37:42.293Z,99.40
2022-12-15T00:40:12.548Z,99.30
2022-12-15T00:42:41.780Z,99.10
2022-12-15T00:45:12.143Z,98.90
2022-12-15T00:47:41.440Z,98.60
2022-12-15T00:50:28.840Z,98.50
2022-12-15T00:53:16.085Z,98.40
2022-12-15T00:56:03.359Z,98.40
2022-12-15T00:58:52.294Z,98.20
2022-12-15T01:01:39.919Z,98.00
2022-12-15T01:04:27.482Z,98.10
2022-12-15T01:07:17.642Z,98.00
2022-12-15T01:10:10.557Z,97.90
2022-12-15T01:13:00.512Z,97.90
2022-12-15T01:15:48.200Z,97.70
2022-12-15T01:18:40.929Z,97.50
2022-12-15T01:21:19.898Z,97.50
2022-12-15T01:23:52.467Z,97.50
2022-12-15T01:26:26.824Z,97.50
2022-12-15T01:28:55.982Z,97.50
2022-12-15T01:31:27.823Z,97.40
2022-12-15T01:34:02.109Z,96.90
2022-12-15T01:36:31.347Z,96.90
2022-12-15T01:39:01.328Z,96.80
2022-12-15T01:41:31.087Z,96.50
2022-12-15T01:44:21.766Z,96.40
2022-12-15T01:46:55.862Z,96.00
2022-12-15T01:49:31.982Z,95.70
2022-12-15T01:52:07.341Z,94.70
2022-12-15T01:54:59.760Z,94.20
2022-12-15T01:57:35.022Z,94.00
2022-12-15T02:00:10.159Z,93.90
2022-12-15T02:02:41.174Z,93.80
2022-12-15T02:05:12.418Z,93.40
2022-12-15T02:07:41.639Z,93.00
2022-12-15T02:10:13.390Z,93.00
2022-12-15T02:13:03.283Z,93.10
2022-12-15T02:15:42.649Z,92.90
2022-12-15T02:18:48.589Z,92.70
2022-12-15T02:21:35.018Z,92.50
2022-12-15T02:24:28.133Z,92.60
2022-12-15T02:27:13.614Z,92.20
2022-12-15T02:30:25.226Z,92.20
2022-12-15T02:33:25.245Z,92.10
2022-12-15T02:36:39.730Z,91.70
2022-12-15T02:39:08.908Z,91.40
2022-12-15T02:41:44.068Z,90.90
2022-12-15T02:44:40.427Z,90.90
2022-12-15T02:47:35.560Z,91.20
2022-12-15T02:50:44.379Z,90.70
2022-12-15T02:53:37.409Z,90.70
2022-12-15T02:56:31.238Z,90.20
2022-12-15T02:59:15.786Z,90.00
2022-12-15T03:02:07.777Z,90.10
2022-12-15T03:04:37.332Z,89.90
2022-12-15T03:07:11.596Z,89.80
2022-12-15T03:09:40.768Z,88.20
2022-12-15T03:12:11.533Z,88.00
2022-12-15T03:14:40.764Z,88.80
2022-12-15T03:17:09.948Z,88.30
2022-12-15T03:19:39.181Z,87.30
2022-12-15T03:22:08.399Z,86.80
2022-12-15T03:24:37.792Z,86.00
2022-12-15T03:27:07.191Z,85.30
2022-12-15T03:29:36.379Z,85.70
2022-12-15T03:32:06.148Z,85.10
2022-12-15T03:34:35.410Z,85.30
2022-12-15T03:37:04.611Z,84.60
2022-12-15T03:39:33.822Z,85.00
2022-12-15T03:42:04.631Z,84.40
2022-12-15T03:44:34.838Z,83.50
2022-12-15T03:47:04.169Z,82.90
2022-12-15T03:49:33.582Z,83.70
2022-12-15T03:52:02.795Z,84.20
2022-12-15T03:54:31.975Z,83.10
2022-12-15T03:57:01.237Z,83.10
2022-12-15T03:59:30.447Z,82.30
2022-12-15T04:01:59.851Z,82.50
2022-12-15T04:04:29.216Z,82.70
2022-12-15T04:06:58.422Z,83.30
2022-12-15T04:09:27.593Z,82.60
2022-12-15T04:11:56.841Z,81.90
2022-12-15T04:14:26.024Z,81.10
2022-12-15T04:16:58.156Z,80.20
2022-12-15T04:19:45.668Z,80.40
2022-12-15T04:22:17.938Z,80.80
2022-12-15T04:25:06.092Z,79.20
2022-12-15T04:27:58.422Z,79.00
2022-12-15T04:30:50.494Z,79.70
2022-12-15T04:33:39.726Z,79.10
2022-12-15T04:36:30.992Z,79.30
2022-12-15T04:39:20.036Z,79.60
2022-12-15T04:42:07.646Z,78.70
2022-12-15T04:44:55.630Z,79.60
2022-12-15T04:47:42.907Z,77.80
2022-12-15T04:50:30.323Z,77.30
2022-12-15T04:53:32.724Z,76.70
2022-12-15T04:56:21.582Z,77.30
2022-12-15T04:59:09.684Z,77.40
2022-12-15T05:01:57.012Z,77.20
2022-12-15T05:04:44.698Z,78.00
2022-12-15T05:07:32.862Z,76.20
2022-12-15T05:10:20.245Z,77.00
2022-12-15T05:13:07.798Z,76.80
2022-12-15T05:15:55.747Z,75.80
2022-12-15T05:18:43.355Z,75.30
2022-12-15T05:21:30.952Z,75.00
2022-12-15T05:24:18.196Z,75.50
2022-12-15T05:27:05.704Z,75.40
2022-12-15T05:29:53.357Z,75.50
2022-12-15T05:32:22.522Z,74.40
2022-12-15T05:34:51.812Z,73.40
2022-12-15T05:37:21.013Z,75.10
2022-12-15T05:39:50.289Z,74.10
2022-12-15T05:42:19.365Z,73.90
2022-12-15T05:44:48.450Z,74.70
2022-12-15T05:47:19.005Z,73.80
2022-12-15T05:49:48.105Z,72.70
2022-12-15T05:52:17.289Z,74.70
2022-12-15T05:54:46.375Z,72.30
2022-12-15T05:57:15.547Z,70.80
2022-12-15T05:59:44.582Z,71.00
2022-12-15T06:02:13.702Z,71.50
2022-12-15T06:04:43.044Z,71.80
2022-12-15T06:07:12.336Z,71.50
2022-12-15T06:09:41.488Z,71.60
2022-12-15T06:12:10.624Z,70.60
2022-12-15T06:14:39.765Z,69.70
2022-12-15T06:17:09.001Z,69.10
2022-12-15T06:19:38.182Z,69.10
2022-12-15T06:22:07.279Z,69.00
2022-12-15T06:24:36.563Z,68.30
2022-12-15T06:27:06.164Z,68.60
2022-12-15T06:29:35.252Z,68.80
2022-12-15T06:32:05.524Z,68.50
2022-12-15T06:34:35.352Z,68.90
2022-12-15T06:37:04.765Z,70.20
2022-12-15T06:39:33.898Z,69.50
2022-12-15T06:42:03.007Z,69.80
2022-12-15T06:44:32.104Z,68.80
2022-12-15T06:47:01.329Z,69.10
2022-12-15T06:49:30.461Z,68.90
2022-12-15T06:51:59.819Z,68.60
2022-12-15T06:54:29.149Z,68.60
2022-12-15T06:56:58.660Z,68.30
2022-12-15T06:59:27.895Z,68.00
2022-12-15T07:01:57.122Z,67.70
2022-12-15T07:04:26.421Z,67.80
2022-12-15T07:06:55.651Z,67.40
2022-12-15T07:09:27.056Z,67.10
2022-12-15T07:11:56.257Z,67.10
2022-12-15T07:14:26.680Z,67.50
2022-12-15T07:16:55.870Z,67.90
2022-12-15T07:19:25.134Z,67.10
2022-12-15T07:21:54.205Z,67.80
2022-12-15T07:24:23.368Z,67.20
2022-12-15T07:26:52.525Z,68.30
2022-12-15T07:29:23.635Z,67.40
2022-12-15T07:31:53.220Z,67.10
2022-12-15T07:34:22.478Z,66.60
2022-12-15T07:36:52.787Z,66.70
2022-12-15T07:39:22.368Z,65.80
2022-12-15T07:41:54.013Z,66.10
2022-12-15T07:44:23.193Z,66.70
2022-12-15T07:46:52.727Z,65.60
2022-12-15T07:49:22.910Z,65.60
2022-12-15T07:51:52.145Z,65.70
2022-12-15T07:54:21.574Z,66.20
2022-12-15T07:56:50.812Z,66.40
2022-12-15T07:59:20.683Z,66.10
2022-12-15T08:01:50.469Z,65.80
2022-12-15T08:04:19.990Z,66.60
2022-12-15T08:06:49.332Z,67.60
2022-12-15T08:09:18.530Z,68.10
2022-12-15T08:11:47.917Z,68.40
2022-12-15T08:14:18.360Z,67.60
2022-12-15T08:16:48.330Z,67.20
2022-12-15T08:19:19.184Z,67.40
2022-12-15T08:21:49.510Z,67.00
2022-12-15T08:24:20.348Z,67.30
2022-12-15T08:26:50.761Z,67.10
2022-12-15T08:29:53.392Z,67.40
2022-12-15T08:32:15.385Z,68.10
2022-12-15T08:34:44.974Z,67.50
2022-12-15T08:37:14.163Z,67.10
2022-12-15T08:39:43.597Z,67.40
2022-12-15T08:42:12.942Z,67.20
2022-12-15T08:44:42.187Z,67.00
2022-12-15T08:47:11.380Z,67.00
2022-12-15T08:49:41.045Z,66.80
2022-12-15T08:52:10.221Z,67.20
2022-12-15T08:54:39.438Z,67.20
2022-12-15T08:57:08.634Z,67.50
2022-12-15T08:59:37.894Z,68.00
2022-12-15T09:02:07.386Z,66.70
2022-12-15T09:05:19.320Z,67.10
2022-12-15T09:07:48.472Z,66.90
2022-12-15T09:10:19.339Z,66.70
2022-12-15T09:12:48.461Z,67.20
2022-12-15T09:15:18.483Z,66.50
2022-12-15T09:17:48.430Z,66.60
2022-12-15T09:20:18.058Z,66.50
2022-12-15T09:22:47.239Z,67.20
2022-12-15T09:25:19.826Z,67.20
2022-12-15T09:27:48.939Z,66.90
2022-12-15T09:30:18.171Z,66.60
2022-12-15T09:32:47.250Z,67.10
2022-12-15T09:35:18.320Z,67.50
2022-12-15T09:37:51.737Z,67.80
2022-12-15T09:40:21.641Z,67.90
2022-12-15T09:43:25.630Z,67.50
2022-12-15T09:46:19.477Z,68.20
2022-12-15T09:48:51.060Z,68.10
2022-12-15T09:51:24.862Z,68.40
2022-12-15T09:53:55.535Z,68.60
2022-12-15T09:56:59.467Z,68.50
2022-12-15T10:00:08.673Z,68.80
2022-12-15T10:03:16.802Z,69.10
2022-12-15T10:06:18.068Z,69.60
2022-12-15T10:09:23.801Z,69.80
2022-12-15T10:12:09.880Z,69.80
2022-12-15T10:14:45.015Z,69.70
2022-12-15T10:17:48.436Z,70.10
2022-12-15T10:20:27.562Z,70.40
2022-12-15T10:23:10.467Z,70.50
2022-12-15T10:25:41.010Z,70.80
2022-12-15T10:28:24.673Z,71.30
2022-12-15T10:31:01.723Z,71.40
2022-12-15T10:33:40.620Z,71.90
2022-12-15T10:36:16.595Z,72.30
2022-12-15T10:38:50.811Z,72.60
2022-12-15T10:41:28.866Z,73.00
2022-12-15T10:43:58.584Z,73.50
2022-12-15T10:46:31.581Z,73.60
2022-12-15T10:49:09.898Z,74.10
2022-12-15T10:52:02.031Z,74.80
2022-12-15T10:54:45.178Z,75.70
2022-12-15T10:57:34.558Z,76.60
2022-12-15T11:00:15.991Z,76.70
2022-12-15T11:02:45.715Z,77.20
2022-12-15T11:05:18.171Z,77.70
2022-12-15T11:08:14.452Z,78.40
2022-12-15T11:11:17.753Z,78.70
2022-12-15T11:14:14.455Z,78.80
2022-12-15T11:16:59.338Z,79.60
2022-12-15T11:19:40.227Z,80.20
2022-12-15T11:22:43.760Z,81.30
2022-12-15T11:25:39.665Z,81.30
2022-12-15T11:28:23.435Z,81.60
2022-12-15T11:31:37.277Z,81.80
2022-12-15T11:34:15.729Z,81.40
2022-12-15T11:37:18.595Z,81.90
2022-12-15T11:40:17.712Z,81.90
2022-12-15T11:43:31.615Z,82.20
2022-12-15T11:46:27.602Z,82.70
2022-12-15T11:49:46.265Z,83.10
2022-12-15T11:52:47.907Z,83.30
2022-12-15T11:55:50.630Z,83.60
2022-12-15T11:58:50.583Z,84.20
2022-12-15T12:01:55.496Z,84.40
2022-12-15T12:04:57.130Z,84.50
2022-12-15T12:08:23.008Z,84.50
2022-12-15T12:11:04.692Z,84.30
2022-12-15T12:14:09.648Z,85.20
2022-12-15T12:17:08.286Z,85.40
2022-12-15T12:19:51.050Z,85.00
2022-12-15T12:22:52.953Z,85.60
2022-12-15T12:25:26.862Z,85.60
2022-12-15T12:28:07.947Z,86.10
2022-12-15T12:30:48.692Z,86.10
2022-12-15T12:33:50.395Z,86.50
2022-12-15T12:36:19.637Z,86.40
2022-12-15T12:38:58.466Z,86.90
2022-12-15T12:41:32.982Z,87.40
2022-12-15T12:44:16.658Z,87.70
2022-12-15T12:46:53.160Z,87.80
2022-12-15T12:49:54.310Z,87.90
2022-12-15T12:52:34.035Z,88.20
2022-12-15T12:55:15.008Z,88.10
2022-12-15T12:57:46.664Z,88.50
2022-12-15T13:00:31.433Z,88.80
2022-12-15T13:03:23.522Z,89.20
2022-12-15T13:05:53.356Z,89.50
2022-12-15T13:08:52.011Z,89.70
2022-12-15T13:11:54.563Z,89.70
2022-12-15T13:14:37.627Z,89.40
2022-12-15T13:17:36.375Z,89.70
2022-12-15T13:20:19.214Z,89.90
2022-12-15T13:22:48.956Z,90.00
2022-12-15T13:25:42.225Z,90.20
2022-12-15T13:28:40.355Z,90.40
2022-12-15T13:31:19.661Z,90.50
2022-12-15T13:33:51.983Z,90.50
2022-12-15T13:36:39.614Z,90.50
2022-12-15T13:39:20.539Z,90.60
2022-12-15T13:44:56.220Z,90.90
2022-12-15T13:47:32.275Z,91.20
2022-12-15T13:50:13.555Z,91.40
2022-12-15T13:56:01.825Z,91.50
2022-12-15T13:58:44.894Z,91.80
2022-12-15T14:04:20.692Z,91.70
2022-12-15T14:06:59.219Z,91.90
2022-12-15T14:09:43.395Z,92.20
2022-12-15T14:12:16.448Z,91.60
2022-12-15T14:14:50.559Z,92.00
2022-12-15T14:17:22.368Z,92.00
2022-12-15T14:19:52.285Z,92.10
2022-12-15T14:22:30.084Z,92.10
2022-12-15T14:25:26.262Z,92.10
2022-12-15T14:27:55.391Z,91.80
2022-12-15T14:30:36.543Z,92.10
2022-12-15T14:33:16.825Z,92.00
2022-12-15T14:35:52.702Z,92.10
2022-12-15T14:38:44.225Z,92.20
2022-12-15T14:41:25.995Z,92.20
2022-12-15T14:44:36.529Z,92.20
2022-12-15T14:46:56.143Z,92.60
2022-12-15T14:49:33.550Z,92.80
2022-12-15T14:52:08.132Z,92.80
2022-12-15T14:57:48.749Z,93.20
2022-12-15T15:00:31.862Z,93.30
2022-12-15T15:03:12.381Z,92.90
2022-12-15T15:03:14.142Z,91.70
2022-12-15T15:03:24.910Z,93.40
2022-12-15T15:06:02.764Z,93.40
2022-12-15T15:08:43.783Z,93.50
2022-12-15T15:11:36.645Z,93.90
2022-12-15T15:14:24.000Z,93.80
2022-12-15T15:17:14.670Z,93.90
2022-12-15T15:20:00.175Z,93.70
2022-12-15T15:22:32.082Z,93.70
2022-12-15T15:25:01.614Z,93.70
2022-12-15T15:27:40.955Z,93.50
2022-12-15T15:30:25.150Z,93.40
2022-12-15T15:33:00.450Z,93.50
2022-12-15T15:35:35.421Z,93.60
2022-12-15T15:38:24.217Z,93.60
2022-12-15T15:41:02.363Z,93.60
2022-12-15T15:43:31.760Z,93.60
2022-12-15T15:46:14.116Z,93.70
2022-12-15T15:49:15.215Z,93.60
2022-12-15T15:51:44.953Z,93.50
2022-12-15T15:54:19.472Z,93.60
2022-12-15T15:56:48.646Z,93.70
2022-12-15T15:59:26.032Z,93.80
2022-12-15T16:02:00.183Z,93.80
2022-12-15T16:04:29.946Z,93.90
2022-12-15T16:06:59.094Z,94.40
2022-12-15T16:09:28.367Z,94.20
2022-12-15T16:11:59.553Z,94.30
2022-12-15T16:14:28.648Z,94.50
2022-12-15T16:16:58.689Z,94.70
2022-12-15T16:19:32.641Z,95.10
2022-12-15T16:22:04.860Z,95.10
2022-12-15T16:24:33.992Z,95.10
2022-12-15T16:27:03.573Z,95.20
2022-12-15T16:29:32.650Z,95.20
2022-12-15T16:32:01.785Z,95.10
2022-12-15T16:34:30.851Z,95.20
2022-12-15T16:37:00.633Z,95.00
2022-12-15T16:39:35.319Z,95.10
2022-12-15T16:42:05.088Z,95.00
2022-12-15T16:44:34.189Z,95.00
2022-12-15T16:47:03.394Z,95.00
2022-12-15T16:49:39.604Z,94.90
2022-12-15T16:52:21.706Z,95.10
2022-12-15T16:54:52.062Z,95.00
2022-12-15T16:57:21.248Z,95.00
2022-12-15T16:59:50.853Z,95.00
2022-12-15T17:02:30.802Z,95.20
2022-12-15T17:05:00.998Z,95.20
2022-12-15T17:07:30.501Z,95.30
2022-12-15T17:10:00.174Z,95.30
2022-12-15T17:12:29.755Z,95.30
2022-12-15T17:14:59.470Z,95.50
2022-12-15T17:17:31.122Z,95.50
2022-12-15T17:22:56.212Z,95.20
2022-12-15T17:26:18.198Z,95.30
2022-12-15T17:28:33.705Z,95.30
2022-12-15T17:31:02.939Z,95.30
2022-12-15T17:33:36.326Z,95.50
2022-12-15T17:36:18.317Z,95.70
2022-12-15T17:38:47.959Z,96.00
2022-12-15T17:41:42.480Z,96.00
2022-12-15T17:44:35.754Z,96.10
2022-12-15T17:47:08.947Z,96.30
2022-12-15T17:49:39.410Z,96.30
2022-12-15T17:52:30.986Z,96.40
2022-12-15T17:55:00.295Z,96.50
2022-12-15T17:57:32.694Z,96.40
2022-12-15T18:00:02.861Z,96.30
2022-12-15T18:02:34.000Z,96.20
2022-12-15T18:05:03.732Z,96.30
2022-12-15T18:07:32.934Z,96.30
2022-12-15T18:10:02.528Z,96.50
2022-12-15T18:12:31.693Z,96.30
2022-12-15T18:15:00.926Z,96.20
2022-12-15T18:17:30.172Z,96.20
2022-12-15T18:19:59.759Z,96.20
2022-12-15T18:22:29.016Z,96.30
2022-12-15T18:24:58.216Z,96.40
2022-12-15T18:27:30.726Z,96.40
2022-12-15T18:30:02.885Z,96.40
2022-12-15T18:32:32.204Z,96.50
2022-12-15T18:35:02.054Z,96.50
2022-12-15T18:37:31.410Z,96.60
2022-12-15T18:40:04.526Z,96.70
2022-12-15T18:42:34.519Z,96.70
2022-12-15T18:45:06.012Z,96.70
2022-12-15T18:47:35.202Z,96.70
2022-12-15T18:50:04.318Z,96.60
2022-12-15T18:52:34.998Z,96.70
2022-12-15T18:55:04.455Z,96.80
2022-12-15T18:57:37.791Z,96.70
2022-12-15T19:00:28.731Z,96.90
2022-12-15T19:03:01.270Z,96.90
2022-12-15T19:05:33.419Z,97.10
2022-12-15T19:08:28.925Z,97.00
2022-12-15T19:11:01.259Z,97.30
2022-12-15T19:13:37.665Z,97.00
2022-12-15T19:16:14.004Z,97.10
2022-12-15T19:19:01.355Z,97.40
2022-12-15T19:21:54.550Z,97.20
2022-12-15T19:24:50.355Z,97.20
2022-12-15T19:27:24.325Z,97.30
2022-12-15T19:29:55.234Z,97.30
2022-12-15T19:32:25.437Z,97.30
2022-12-15T19:34:54.656Z,97.40
2022-12-15T19:37:28.649Z,97.40
2022-12-15T19:40:02.907Z,97.60
2022-12-15T19:42:38.994Z,97.50
2022-12-15T19:45:27.601Z,97.50
2022-12-15T19:47:57.073Z,97.40
2022-12-15T19:50:37.501Z,97.50
2022-12-15T19:53:30.174Z,97.50
2022-12-15T19:56:05.035Z,97.50
2022-12-15T19:58:37.369Z,97.40
2022-12-15T20:01:15.794Z,97.50
2022-12-15T20:03:49.213Z,97.60
2022-12-15T20:06:26.930Z,97.60
2022-12-15T20:08:58.017Z,97.70
2022-12-15T20:11:33.757Z,97.90
2022-12-15T20:14:04.127Z,98.10
2022-12-15T20:16:33.313Z,98.20
2022-12-15T20:19:02.516Z,97.80
2022-12-15T20:21:38.184Z,97.80
2022-12-15T20:24:13.504Z,97.90
2022-12-15T20:26:43.974Z,98.00
2022-12-15T20:29:33.738Z,98.00
2022-12-15T20:32:03.083Z,98.00
2022-12-15T20:34:32.332Z,98.00
2022-12-15T20:37:01.533Z,98.00
2022-12-15T20:39:31.974Z,98.00
2022-12-15T20:42:01.217Z,98.00
2022-12-15T20:44:30.453Z,98.00
2022-12-15T20:46:59.703Z,98.20
2022-12-15T20:49:29.274Z,98.10
2022-12-15T20:51:58.553Z,98.00
2022-12-15T20:54:27.807Z,98.10
2022-12-15T20:56:57.224Z,98.10
2022-12-15T20:59:26.462Z,98.30
2022-12-15T21:01:55.899Z,98.10
2022-12-15T21:04:30.094Z,98.00
2022-12-15T21:07:00.452Z,98.10
2022-12-15T21:09:29.723Z,98.00
2022-12-15T21:12:01.990Z,98.20
2022-12-15T21:14:33.697Z,98.20
2022-12-15T21:17:02.912Z,98.30
2022-12-15T21:19:32.189Z,98.30
2022-12-15T21:22:02.529Z,98.50
2022-12-15T21:24:33.031Z,98.50
2022-12-15T21:27:02.558Z,98.50
2022-12-15T21:29:32.491Z,98.40
2022-12-15T21:32:01.703Z,98.50
2022-12-15T21:34:30.988Z,98.60
2022-12-15T21:37:00.899Z,98.60
2022-12-15T21:39:38.185Z,98.50
2022-12-15T21:42:17.230Z,98.50
2022-12-15T21:44:47.169Z,98.60
2022-12-15T21:47:47.002Z,98.70
2022-12-15T21:50:17.856Z,98.70
2022-12-15T21:52:50.307Z,98.50
2022-12-15T21:55:29.815Z,98.50
2022-12-15T21:57:59.660Z,98.40
2022-12-15T22:00:29.040Z,98.30
2022-12-15T22:02:58.407Z,98.30
2022-12-15T22:05:33.492Z,98.30
2022-12-15T22:08:24.748Z,98.30
2022-12-15T22:10:55.787Z,98.30
2022-12-15T22:13:25.757Z,98.20
2022-12-15T22:15:55.072Z,98.20
2022-12-15T22:18:25.270Z,98.20
2022-12-15T22:20:54.504Z,98.10
2022-12-15T22:23:23.683Z,98.10
2022-12-15T22:25:57.030Z,98.20
2022-12-15T22:28:30.687Z,98.20
2022-12-15T22:31:04.477Z,98.20
2022-12-15T22:33:33.722Z,98.10
2022-12-15T22:36:02.951Z,98.10
2022-12-15T22:38:32.393Z,98.20
2022-12-15T22:41:02.420Z,98.30
2022-12-15T22:43:44.606Z,98.30
2022-12-15T22:46:16.909Z,98.30
2022-12-15T22:48:48.750Z,98.20
2022-12-15T22:51:20.576Z,98.30
2022-12-15T22:53:49.849Z,98.40
2022-12-15T22:56:39.475Z,98.50
2022-12-15T22:59:14.452Z,98.40
2022-12-15T23:01:43.733Z,98.30
2022-12-15T23:04:13.282Z,98.40
2022-12-15T23:06:43.027Z,98.70
2022-12-15T23:09:12.230Z,98.40
2022-12-15T23:11:42.401Z,98.30
2022-12-15T23:14:15.858Z,98.30
2022-12-15T23:16:48.812Z,98.40
2022-12-15T23:19:27.195Z,98.50
2022-12-15T23:21:56.371Z,98.40
2022-12-15T23:24:25.537Z,98.40
2022-12-15T23:26:54.763Z,98.30
2022-12-15T23:29:24.184Z,98.30
2022-12-15T23:31:53.495Z,98.30
2022-12-15T23:34:22.692Z,98.30
2022-12-15T23:36:51.889Z,98.40
2022-12-15T23:39:21.150Z,98.50
2022-12-15T23:41:50.320Z,98.50
2022-12-15T23:44:19.858Z,98.50
2022-12-15T23:46:49.116Z,98.50
2022-12-15T23:49:18.339Z,98.50
2022-12-15T23:51:47.638Z,98.60
2022-12-15T23:54:17.172Z,98.50
2022-12-15T23:56:46.749Z,98.70
2022-12-15T23:59:15.970Z,98.80
